sensor_id;sensor_type;location;lat;lon;timestamp;pressure;altitude;pressure_sealevel;temperature;humidity
66703;BME280;60933;46.398;-63.798;2023-06-22T00:00:53;102109.63;;;22.82;48.00
66703;BME280;60933;46.398;-63.798;2023-06-22T00:03:21;102123.56;;;22.51;48.62
66703;BME280;60933;46.398;-63.798;2023-06-22T00:05:48;102123.56;;;22.17;49.29
66703;BME280;60933;46.398;-63.798;2023-06-22T00:08:15;102117.09;;;21.89;49.65
66703;BME280;60933;46.398;-63.798;2023-06-22T00:10:42;102118.94;;;21.70;50.50
66703;BME280;60933;46.398;-63.798;2023-06-22T00:13:10;102110.72;;;21.41;50.75
66703;BME280;60933;46.398;-63.798;2023-06-22T00:15:37;102120.13;;;21.27;51.28
66703;BME280;60933;46.398;-63.798;2023-06-22T00:18:05;102122.69;;;21.10;51.49
66703;BME280;60933;46.398;-63.798;2023-06-22T00:20:32;102116.19;;;20.99;52.78
66703;BME280;60933;46.398;-63.798;2023-06-22T00:22:58;102126.75;;;20.79;52.28
66703;BME280;60933;46.398;-63.798;2023-06-22T00:25:25;102129.00;;;20.67;53.12
66703;BME280;60933;46.398;-63.798;2023-06-22T00:27:51;102135.00;;;20.50;53.50
66703;BME280;60933;46.398;-63.798;2023-06-22T00:30:18;102142.63;;;20.36;54.43
66703;BME280;60933;46.398;-63.798;2023-06-22T00:32:45;102142.31;;;20.23;54.78
66703;BME280;60933;46.398;-63.798;2023-06-22T00:35:14;102131.53;;;20.10;55.63
66703;BME280;60933;46.398;-63.798;2023-06-22T00:37:40;102131.19;;;19.97;55.28
66703;BME280;60933;46.398;-63.798;2023-06-22T00:40:08;102138.72;;;19.84;55.29
66703;BME280;60933;46.398;-63.798;2023-06-22T00:42:38;102128.91;;;19.67;55.37
66703;BME280;60933;46.398;-63.798;2023-06-22T00:45:05;102141.66;;;19.54;55.25
66703;BME280;60933;46.398;-63.798;2023-06-22T00:47:34;102140.00;;;19.52;56.25
66703;BME280;60933;46.398;-63.798;2023-06-22T00:50:00;102135.31;;;19.38;56.05
66703;BME280;60933;46.398;-63.798;2023-06-22T00:52:26;102138.91;;;19.35;55.34
66703;BME280;60933;46.398;-63.798;2023-06-22T00:54:56;102146.28;;;19.25;57.16
66703;BME280;60933;46.398;-63.798;2023-06-22T00:57:24;102143.19;;;19.16;56.58
66703;BME280;60933;46.398;-63.798;2023-06-22T00:59:54;102148.88;;;19.03;57.30
66703;BME280;60933;46.398;-63.798;2023-06-22T01:02:20;102143.06;;;18.95;57.17
66703;BME280;60933;46.398;-63.798;2023-06-22T01:04:47;102146.94;;;18.85;58.21
66703;BME280;60933;46.398;-63.798;2023-06-22T01:12:34;102141.06;;;18.54;59.47
66703;BME280;60933;46.398;-63.798;2023-06-22T01:15:36;102148.22;;;18.49;60.33
66703;BME280;60933;46.398;-63.798;2023-06-22T01:18:06;102145.88;;;18.41;60.08
66703;BME280;60933;46.398;-63.798;2023-06-22T01:20:35;102141.75;;;18.34;58.97
66703;BME280;60933;46.398;-63.798;2023-06-22T01:23:26;102139.38;;;18.28;60.84
66703;BME280;60933;46.398;-63.798;2023-06-22T01:28:53;102139.16;;;18.09;61.75
66703;BME280;60933;46.398;-63.798;2023-06-22T01:31:26;102131.56;;;18.01;61.34
66703;BME280;60933;46.398;-63.798;2023-06-22T01:33:55;102141.41;;;17.93;61.68
66703;BME280;60933;46.398;-63.798;2023-06-22T01:36:22;102139.94;;;17.84;61.21
66703;BME280;60933;46.398;-63.798;2023-06-22T01:38:49;102154.03;;;17.80;61.33
66703;BME280;60933;46.398;-63.798;2023-06-22T01:41:17;102143.03;;;17.70;61.30
66703;BME280;60933;46.398;-63.798;2023-06-22T01:43:47;102143.22;;;17.64;62.31
66703;BME280;60933;46.398;-63.798;2023-06-22T01:46:15;102149.44;;;17.60;62.45
66703;BME280;60933;46.398;-63.798;2023-06-22T01:48:41;102153.09;;;17.54;63.03
66703;BME280;60933;46.398;-63.798;2023-06-22T01:51:07;102149.81;;;17.47;62.49
66703;BME280;60933;46.398;-63.798;2023-06-22T01:53:33;102163.81;;;17.45;62.35
66703;BME280;60933;46.398;-63.798;2023-06-22T01:55:59;102158.81;;;17.38;62.41
66703;BME280;60933;46.398;-63.798;2023-06-22T01:58:27;102152.91;;;17.32;62.07
66703;BME280;60933;46.398;-63.798;2023-06-22T02:00:58;102153.91;;;17.28;63.73
66703;BME280;60933;46.398;-63.798;2023-06-22T02:03:34;102146.28;;;17.21;63.62
66703;BME280;60933;46.398;-63.798;2023-06-22T02:06:05;102148.19;;;17.16;63.53
66703;BME280;60933;46.398;-63.798;2023-06-22T02:08:46;102143.19;;;17.08;63.53
66703;BME280;60933;46.398;-63.798;2023-06-22T02:11:16;102151.97;;;17.06;63.88
66703;BME280;60933;46.398;-63.798;2023-06-22T02:13:44;102151.28;;;16.99;63.18
66703;BME280;60933;46.398;-63.798;2023-06-22T02:16:12;102160.03;;;16.97;64.70
66703;BME280;60933;46.398;-63.798;2023-06-22T02:18:38;102159.38;;;16.88;63.88
66703;BME280;60933;46.398;-63.798;2023-06-22T02:21:06;102159.38;;;16.88;62.94
66703;BME280;60933;46.398;-63.798;2023-06-22T02:23:32;102154.41;;;16.81;64.27
66703;BME280;60933;46.398;-63.798;2023-06-22T02:26:02;102155.34;;;16.78;63.52
66703;BME280;60933;46.398;-63.798;2023-06-22T02:28:29;102155.47;;;16.73;65.56
66703;BME280;60933;46.398;-63.798;2023-06-22T02:30:55;102142.75;;;16.63;63.53
66703;BME280;60933;46.398;-63.798;2023-06-22T02:33:21;102154.84;;;16.64;64.75
66703;BME280;60933;46.398;-63.798;2023-06-22T02:35:47;102146.19;;;16.63;61.79
66703;BME280;60933;46.398;-63.798;2023-06-22T02:38:15;102163.53;;;16.64;63.70
66703;BME280;60933;46.398;-63.798;2023-06-22T02:40:41;102161.00;;;16.61;62.91
66703;BME280;60933;46.398;-63.798;2023-06-22T02:43:07;102157.56;;;16.60;63.54
66703;BME280;60933;46.398;-63.798;2023-06-22T02:45:33;102155.03;;;16.57;64.29
66703;BME280;60933;46.398;-63.798;2023-06-22T02:47:59;102148.16;;;16.55;61.78
66703;BME280;60933;46.398;-63.798;2023-06-22T02:50:25;102155.03;;;16.57;61.65
66703;BME280;60933;46.398;-63.798;2023-06-22T02:52:51;102143.88;;;16.52;61.88
66703;BME280;60933;46.398;-63.798;2023-06-22T02:55:17;102121.75;;;16.36;63.12
66703;BME280;60933;46.398;-63.798;2023-06-22T02:57:44;102138.91;;;16.43;64.95
66703;BME280;60933;46.398;-63.798;2023-06-22T03:00:12;102107.47;;;16.18;65.86
66703;BME280;60933;46.398;-63.798;2023-06-22T03:02:46;102139.13;;;16.35;63.20
66703;BME280;60933;46.398;-63.798;2023-06-22T03:05:12;102127.84;;;16.35;63.14
66703;BME280;60933;46.398;-63.798;2023-06-22T03:07:44;102127.00;;;16.34;61.34
66703;BME280;60933;46.398;-63.798;2023-06-22T03:10:11;102137.44;;;16.33;61.52
66703;BME280;60933;46.398;-63.798;2023-06-22T03:12:38;102139.22;;;16.32;60.98
66703;BME280;60933;46.398;-63.798;2023-06-22T03:15:06;102144.63;;;16.24;62.94
66703;BME280;60933;46.398;-63.798;2023-06-22T03:17:34;102133.47;;;16.19;61.04
66703;BME280;60933;46.398;-63.798;2023-06-22T03:20:01;102139.66;;;16.15;66.55
66703;BME280;60933;46.398;-63.798;2023-06-22T03:22:35;102145.88;;;16.09;65.66
66703;BME280;60933;46.398;-63.798;2023-06-22T03:25:02;102149.41;;;16.07;64.59
66703;BME280;60933;46.398;-63.798;2023-06-22T03:27:28;102141.72;;;16.02;63.88
66703;BME280;60933;46.398;-63.798;2023-06-22T03:29:56;102135.63;;;16.02;63.38
66703;BME280;60933;46.398;-63.798;2023-06-22T03:32:22;102146.16;;;15.98;67.22
66703;BME280;60933;46.398;-63.798;2023-06-22T03:34:49;102139.38;;;15.91;65.11
66703;BME280;60933;46.398;-63.798;2023-06-22T03:37:15;102133.34;;;15.89;64.03
66703;BME280;60933;46.398;-63.798;2023-06-22T03:39:41;102128.25;;;15.86;65.29
66703;BME280;60933;46.398;-63.798;2023-06-22T03:42:07;102121.41;;;15.80;64.90
66703;BME280;60933;46.398;-63.798;2023-06-22T03:44:35;102124.94;;;15.78;66.76
66703;BME280;60933;46.398;-63.798;2023-06-22T03:47:04;102129.31;;;15.76;67.46
66703;BME280;60933;46.398;-63.798;2023-06-22T03:49:30;102126.78;;;15.73;67.37
66703;BME280;60933;46.398;-63.798;2023-06-22T03:51:56;102128.59;;;15.69;67.52
66703;BME280;60933;46.398;-63.798;2023-06-22T03:54:22;102126.06;;;15.67;67.57
66703;BME280;60933;46.398;-63.798;2023-06-22T03:56:48;102120.13;;;15.61;67.64
66703;BME280;60933;46.398;-63.798;2023-06-22T03:59:14;102130.53;;;15.61;69.83
66703;BME280;60933;46.398;-63.798;2023-06-22T04:01:40;102131.47;;;15.58;71.21
66703;BME280;60933;46.398;-63.798;2023-06-22T04:04:06;102136.75;;;15.55;71.41
66703;BME280;60933;46.398;-63.798;2023-06-22T04:06:32;102134.31;;;15.47;70.99
66703;BME280;60933;46.398;-63.798;2023-06-22T04:09:00;102123.91;;;15.47;69.78
66703;BME280;60933;46.398;-63.798;2023-06-22T04:11:26;102118.81;;;15.43;71.22
66703;BME280;60933;46.398;-63.798;2023-06-22T04:13:52;102127.56;;;15.40;71.79
66703;BME280;60933;46.398;-63.798;2023-06-22T04:16:19;102121.53;;;15.38;72.88
66703;BME280;60933;46.398;-63.798;2023-06-22T04:18:45;102123.34;;;15.34;73.15
66703;BME280;60933;46.398;-63.798;2023-06-22T04:21:11;102116.50;;;15.30;73.47
66703;BME280;60933;46.398;-63.798;2023-06-22T04:23:37;102127.81;;;15.29;73.58
66703;BME280;60933;46.398;-63.798;2023-06-22T04:26:04;102121.81;;;15.26;72.47
66703;BME280;60933;46.398;-63.798;2023-06-22T04:28:30;102108.06;;;15.21;70.37
66703;BME280;60933;46.398;-63.798;2023-06-22T04:31:03;102117.56;;;15.22;73.15
66703;BME280;60933;46.398;-63.798;2023-06-22T04:33:30;102111.56;;;15.18;72.27
66703;BME280;60933;46.398;-63.798;2023-06-22T04:35:57;102113.38;;;15.16;71.13
66703;BME280;60933;46.398;-63.798;2023-06-22T04:38:24;102111.66;;;15.15;75.26
66703;BME280;60933;46.398;-63.798;2023-06-22T04:40:51;102112.59;;;15.11;75.54
66703;BME280;60933;46.398;-63.798;2023-06-22T04:43:17;102105.75;;;15.07;75.37
66703;BME280;60933;46.398;-63.798;2023-06-22T04:45:43;102111.00;;;15.05;75.57
66703;BME280;60933;46.398;-63.798;2023-06-22T04:48:09;102108.41;;;15.03;77.53
66703;BME280;60933;46.398;-63.798;2023-06-22T04:50:36;102105.00;;;15.01;76.55
66703;BME280;60933;46.398;-63.798;2023-06-22T04:53:05;102102.44;;;15.00;76.40
66703;BME280;60933;46.398;-63.798;2023-06-22T04:55:34;102109.34;;;15.01;77.01
66703;BME280;60933;46.398;-63.798;2023-06-22T04:58:03;102107.63;;;15.00;78.79
66703;BME280;60933;46.398;-63.798;2023-06-22T05:00:30;102106.84;;;14.96;78.31
66703;BME280;60933;46.398;-63.798;2023-06-22T05:02:57;102108.56;;;14.97;78.13
66703;BME280;60933;46.398;-63.798;2023-06-22T05:05:24;102101.63;;;14.96;78.66
66703;BME280;60933;46.398;-63.798;2023-06-22T05:07:51;102104.28;;;14.95;77.15
66703;BME280;60933;46.398;-63.798;2023-06-22T05:10:25;102105.13;;;14.95;75.20
66703;BME280;60933;46.398;-63.798;2023-06-22T05:12:52;102087.16;;;14.86;75.73
66703;BME280;60933;46.398;-63.798;2023-06-22T05:15:18;102099.91;;;14.97;77.36
66703;BME280;60933;46.398;-63.798;2023-06-22T05:17:52;102106.00;;;14.96;78.48
66703;BME280;60933;46.398;-63.798;2023-06-22T05:20:18;102100.81;;;14.94;77.01
66703;BME280;60933;46.398;-63.798;2023-06-22T05:22:44;102098.22;;;14.94;78.78
66703;BME280;60933;46.398;-63.798;2023-06-22T05:25:11;102108.69;;;14.91;78.94
66703;BME280;60933;46.398;-63.798;2023-06-22T05:27:37;102113.00;;;14.92;78.17
66703;BME280;60933;46.398;-63.798;2023-06-22T05:30:06;102103.53;;;14.90;79.29
66703;BME280;60933;46.398;-63.798;2023-06-22T05:32:33;102103.53;;;14.88;79.50
66703;BME280;60933;46.398;-63.798;2023-06-22T05:34:59;102101.81;;;14.87;79.34
66703;BME280;60933;46.398;-63.798;2023-06-22T05:37:25;102091.50;;;14.84;79.34
66703;BME280;60933;46.398;-63.798;2023-06-22T05:39:52;102093.28;;;14.82;79.18
66703;BME280;60933;46.398;-63.798;2023-06-22T05:42:19;102092.44;;;14.80;79.60
66703;BME280;60933;46.398;-63.798;2023-06-22T05:44:45;102094.16;;;14.81;79.50
66703;BME280;60933;46.398;-63.798;2023-06-22T05:47:13;102108.91;;;14.80;79.03
66703;BME280;60933;46.398;-63.798;2023-06-22T05:49:39;102100.25;;;14.80;79.07
66703;BME280;60933;46.398;-63.798;2023-06-22T05:52:05;102091.66;;;14.76;78.69
66703;BME280;60933;46.398;-63.798;2023-06-22T05:54:31;102100.25;;;14.80;78.88
66703;BME280;60933;46.398;-63.798;2023-06-22T05:56:57;102086.50;;;14.75;79.59
66703;BME280;60933;46.398;-63.798;2023-06-22T05:59:23;102096.84;;;14.78;79.66
66703;BME280;60933;46.398;-63.798;2023-06-22T06:01:49;102101.16;;;14.79;77.87
66703;BME280;60933;46.398;-63.798;2023-06-22T06:04:17;102093.47;;;14.72;78.72
66703;BME280;60933;46.398;-63.798;2023-06-22T06:06:44;102097.66;;;14.80;79.13
66703;BME280;60933;46.398;-63.798;2023-06-22T06:09:10;102091.59;;;14.79;78.52
66703;BME280;60933;46.398;-63.798;2023-06-22T06:11:37;102093.41;;;14.76;78.03
66703;BME280;60933;46.398;-63.798;2023-06-22T06:14:04;102096.91;;;14.75;76.91
66703;BME280;60933;46.398;-63.798;2023-06-22T06:16:30;102091.66;;;14.78;78.46
66703;BME280;60933;46.398;-63.798;2023-06-22T06:18:56;102099.44;;;14.78;79.24
66703;BME280;60933;46.398;-63.798;2023-06-22T06:21:24;102105.53;;;14.77;80.22
66703;BME280;60933;46.398;-63.798;2023-06-22T06:23:52;102097.75;;;14.75;80.41
66703;BME280;60933;46.398;-63.798;2023-06-22T06:26:19;102100.47;;;14.69;79.61
66703;BME280;60933;46.398;-63.798;2023-06-22T06:28:54;102103.16;;;14.66;81.08
66703;BME280;60933;46.398;-63.798;2023-06-22T06:31:20;102104.84;;;14.65;81.09
66703;BME280;60933;46.398;-63.798;2023-06-22T06:33:46;102103.13;;;14.64;80.51
66703;BME280;60933;46.398;-63.798;2023-06-22T06:36:12;102104.09;;;14.60;80.33
66703;BME280;60933;46.398;-63.798;2023-06-22T06:38:38;102098.94;;;14.57;79.72
66703;BME280;60933;46.398;-63.798;2023-06-22T06:41:04;102098.16;;;14.53;80.31
66703;BME280;60933;46.398;-63.798;2023-06-22T06:43:31;102099.03;;;14.52;80.06
66703;BME280;60933;46.398;-63.798;2023-06-22T06:45:57;102090.38;;;14.52;80.80
66703;BME280;60933;46.398;-63.798;2023-06-22T06:48:23;102087.03;;;14.47;80.62
66703;BME280;60933;46.398;-63.798;2023-06-22T06:50:50;102098.28;;;14.47;80.69
66703;BME280;60933;46.398;-63.798;2023-06-22T06:53:16;102100.03;;;14.47;79.91
66703;BME280;60933;46.398;-63.798;2023-06-22T06:55:42;102091.38;;;14.46;80.12
66703;BME280;60933;46.398;-63.798;2023-06-22T06:58:11;102081.97;;;14.40;80.17
66703;BME280;60933;46.398;-63.798;2023-06-22T07:00:39;102090.59;;;14.41;80.41
66703;BME280;60933;46.398;-63.798;2023-06-22T07:03:05;102094.03;;;14.41;80.70
66703;BME280;60933;46.398;-63.798;2023-06-22T07:05:32;102082.84;;;14.38;80.23
66703;BME280;60933;46.398;-63.798;2023-06-22T07:07:58;102086.34;;;14.37;80.58
66703;BME280;60933;46.398;-63.798;2023-06-22T07:10:25;102093.31;;;14.35;80.27
66703;BME280;60933;46.398;-63.798;2023-06-22T07:12:51;102089.94;;;14.30;80.47
66703;BME280;60933;46.398;-63.798;2023-06-22T07:15:17;102080.53;;;14.24;79.71
66703;BME280;60933;46.398;-63.798;2023-06-22T07:17:43;102089.13;;;14.26;81.55
66703;BME280;60933;46.398;-63.798;2023-06-22T07:20:10;102078.00;;;14.21;80.30
66703;BME280;60933;46.398;-63.798;2023-06-22T07:22:43;102088.34;;;14.22;81.21
66703;BME280;60933;46.398;-63.798;2023-06-22T07:25:10;102079.75;;;14.19;82.27
66703;BME280;60933;46.398;-63.798;2023-06-22T07:27:47;102078.97;;;14.15;78.64
66703;BME280;60933;46.398;-63.798;2023-06-22T07:30:22;102076.34;;;14.17;78.77
66703;BME280;60933;46.398;-63.798;2023-06-22T07:32:48;102075.44;;;14.18;81.25
66703;BME280;60933;46.398;-63.798;2023-06-22T07:35:14;102077.22;;;14.16;78.36
66703;BME280;60933;46.398;-63.798;2023-06-22T07:37:42;102075.53;;;14.15;78.96
66703;BME280;60933;46.398;-63.798;2023-06-22T07:40:09;102074.72;;;14.11;79.27
66703;BME280;60933;46.398;-63.798;2023-06-22T07:42:35;102077.34;;;14.08;76.13
66703;BME280;60933;46.398;-63.798;2023-06-22T07:45:03;102070.44;;;14.07;76.28
66703;BME280;60933;46.398;-63.798;2023-06-22T07:47:30;102077.41;;;14.06;75.04
66703;BME280;60933;46.398;-63.798;2023-06-22T07:49:59;102063.56;;;14.04;75.39
66703;BME280;60933;46.398;-63.798;2023-06-22T07:52:27;102065.34;;;14.02;77.12
66703;BME280;60933;46.398;-63.798;2023-06-22T07:54:54;102070.53;;;14.02;74.95
66703;BME280;60933;46.398;-63.798;2023-06-22T07:57:20;102066.31;;;13.97;73.29
66703;BME280;60933;46.398;-63.798;2023-06-22T07:59:46;102067.16;;;13.97;74.02
66703;BME280;60933;46.398;-63.798;2023-06-22T08:02:12;102064.63;;;13.96;74.10
66703;BME280;60933;46.398;-63.798;2023-06-22T08:04:39;102063.75;;;13.95;75.44
66703;BME280;60933;46.398;-63.798;2023-06-22T08:07:06;102069.88;;;13.91;75.69
66703;BME280;60933;46.398;-63.798;2023-06-22T08:09:32;102062.22;;;13.85;73.23
66703;BME280;60933;46.398;-63.798;2023-06-22T08:11:59;102064.72;;;13.88;77.67
66703;BME280;60933;46.398;-63.798;2023-06-22T08:14:26;102062.22;;;13.85;73.96
66703;BME280;60933;46.398;-63.798;2023-06-22T08:16:52;102064.81;;;13.83;75.83
66703;BME280;60933;46.398;-63.798;2023-06-22T08:19:18;102064.84;;;13.82;76.85
66703;BME280;60933;46.398;-63.798;2023-06-22T08:21:45;102069.19;;;13.80;74.00
66703;BME280;60933;46.398;-63.798;2023-06-22T08:24:11;102063.19;;;13.76;73.57
66703;BME280;60933;46.398;-63.798;2023-06-22T08:26:37;102067.50;;;13.79;72.92
66703;BME280;60933;46.398;-63.798;2023-06-22T08:29:03;102072.63;;;13.82;75.44
66703;BME280;60933;46.398;-63.798;2023-06-22T08:31:31;102067.44;;;13.82;76.61
66703;BME280;60933;46.398;-63.798;2023-06-22T08:33:59;102064.91;;;13.79;75.77
66703;BME280;60933;46.398;-63.798;2023-06-22T08:36:25;102064.06;;;13.76;77.09
66703;BME280;60933;46.398;-63.798;2023-06-22T08:38:54;102062.31;;;13.79;77.72
66703;BME280;60933;46.398;-63.798;2023-06-22T08:41:27;102071.81;;;13.78;79.66
66703;BME280;60933;46.398;-63.798;2023-06-22T08:43:53;102066.63;;;13.78;81.26
66703;BME280;60933;46.398;-63.798;2023-06-22T08:46:19;102078.69;;;13.81;82.58
66703;BME280;60933;46.398;-63.798;2023-06-22T08:48:49;102078.69;;;13.81;82.18
66703;BME280;60933;46.398;-63.798;2023-06-22T08:51:16;102079.56;;;13.81;82.11
66703;BME280;60933;46.398;-63.798;2023-06-22T08:53:42;102076.09;;;13.82;83.22
66703;BME280;60933;46.398;-63.798;2023-06-22T08:56:10;102058.81;;;13.80;81.97
66703;BME280;60933;46.398;-63.798;2023-06-22T08:58:36;102077.78;;;13.85;82.23
66703;BME280;60933;46.398;-63.798;2023-06-22T09:01:03;102075.19;;;13.85;81.38
66703;BME280;60933;46.398;-63.798;2023-06-22T09:03:30;102077.72;;;13.88;82.74
66703;BME280;60933;46.398;-63.798;2023-06-22T09:05:58;102084.56;;;13.92;82.67
66703;BME280;60933;46.398;-63.798;2023-06-22T09:08:24;102089.69;;;13.95;82.31
66703;BME280;60933;46.398;-63.798;2023-06-22T09:10:50;102093.09;;;14.00;82.22
66703;BME280;60933;46.398;-63.798;2023-06-22T09:13:17;102100.81;;;14.03;82.25
66703;BME280;60933;46.398;-63.798;2023-06-22T09:15:43;102092.97;;;14.06;82.67
66703;BME280;60933;46.398;-63.798;2023-06-22T09:18:12;102097.25;;;14.09;82.42
66703;BME280;60933;46.398;-63.798;2023-06-22T09:20:38;102087.75;;;14.09;81.60
66703;BME280;60933;46.398;-63.798;2023-06-22T09:23:05;102100.53;;;14.20;82.01
66703;BME280;60933;46.398;-63.798;2023-06-22T09:25:31;102097.09;;;14.18;81.33
66703;BME280;60933;46.398;-63.798;2023-06-22T09:27:57;102095.25;;;14.25;81.65
66703;BME280;60933;46.398;-63.798;2023-06-22T09:30:23;102096.84;;;14.31;81.92
66703;BME280;60933;46.398;-63.798;2023-06-22T09:32:49;102094.25;;;14.32;81.02
66703;BME280;60933;46.398;-63.798;2023-06-22T09:35:15;102090.75;;;14.33;81.75
66703;BME280;60933;46.398;-63.798;2023-06-22T09:37:42;102100.16;;;14.39;81.52
66703;BME280;60933;46.398;-63.798;2023-06-22T09:40:08;102107.81;;;14.47;81.97
66703;BME280;60933;46.398;-63.798;2023-06-22T09:42:36;102110.34;;;14.50;81.95
66703;BME280;60933;46.398;-63.798;2023-06-22T09:45:03;102096.47;;;14.51;81.54
66703;BME280;60933;46.398;-63.798;2023-06-22T09:47:29;102104.97;;;14.59;81.68
66703;BME280;60933;46.398;-63.798;2023-06-22T09:49:55;102109.25;;;14.63;81.97
66703;BME280;60933;46.398;-63.798;2023-06-22T09:52:22;102112.63;;;14.68;82.02
66703;BME280;60933;46.398;-63.798;2023-06-22T09:54:48;102102.97;;;14.74;81.60
66703;BME280;60933;46.398;-63.798;2023-06-22T09:57:14;102088.16;;;14.79;81.83
66703;BME280;60933;46.398;-63.798;2023-06-22T09:59:41;102100.19;;;14.83;80.78
66703;BME280;60933;46.398;-63.798;2023-06-22T10:02:07;102111.34;;;14.90;81.54
66703;BME280;60933;46.398;-63.798;2023-06-22T10:04:34;102103.50;;;14.91;80.80
66703;BME280;60933;46.398;-63.798;2023-06-22T10:07:00;102108.47;;;15.02;80.65
66703;BME280;60933;46.398;-63.798;2023-06-22T10:09:27;102113.53;;;15.08;80.56
66703;BME280;60933;46.398;-63.798;2023-06-22T10:11:53;102101.31;;;15.12;79.86
66703;BME280;60933;46.398;-63.798;2023-06-22T10:14:19;102107.22;;;15.18;80.07
66703;BME280;60933;46.398;-63.798;2023-06-22T10:16:45;102114.94;;;15.23;80.47
66703;BME280;60933;46.398;-63.798;2023-06-22T10:19:11;102111.31;;;15.30;79.85
66703;BME280;60933;46.398;-63.798;2023-06-22T10:21:37;102109.53;;;15.32;79.74
66703;BME280;60933;46.398;-63.798;2023-06-22T10:24:04;102095.59;;;15.33;78.87
66703;BME280;60933;46.398;-63.798;2023-06-22T10:26:35;102107.47;;;15.47;78.62
66703;BME280;60933;46.398;-63.798;2023-06-22T10:29:02;102098.72;;;15.48;78.56
66703;BME280;60933;46.398;-63.798;2023-06-22T10:31:29;102095.13;;;15.54;78.38
66703;BME280;60933;46.398;-63.798;2023-06-22T10:33:55;102102.84;;;15.58;77.97
66703;BME280;60933;46.398;-63.798;2023-06-22T10:36:22;102098.38;;;15.63;77.51
66703;BME280;60933;46.398;-63.798;2023-06-22T10:38:48;102107.78;;;15.69;77.30
66703;BME280;60933;46.398;-63.798;2023-06-22T10:41:15;102112.88;;;15.74;77.46
66703;BME280;60933;46.398;-63.798;2023-06-22T10:43:42;102113.66;;;15.77;77.30
66703;BME280;60933;46.398;-63.798;2023-06-22T10:46:09;102104.88;;;15.83;77.18
66703;BME280;60933;46.398;-63.798;2023-06-22T10:48:35;102111.63;;;15.90;76.80
66703;BME280;60933;46.398;-63.798;2023-06-22T10:51:01;102109.69;;;15.98;76.32
66703;BME280;60933;46.398;-63.798;2023-06-22T10:53:27;102113.91;;;16.03;76.14
66703;BME280;60933;46.398;-63.798;2023-06-22T10:55:53;102121.59;;;16.09;76.43
66703;BME280;60933;46.398;-63.798;2023-06-22T10:58:20;102111.94;;;16.12;75.87
66703;BME280;60933;46.398;-63.798;2023-06-22T11:00:46;102110.19;;;16.13;75.89
66703;BME280;60933;46.398;-63.798;2023-06-22T11:03:12;102110.72;;;16.26;75.44
66703;BME280;60933;46.398;-63.798;2023-06-22T11:05:40;102108.06;;;16.27;75.05
66703;BME280;60933;46.398;-63.798;2023-06-22T11:08:07;102110.50;;;16.34;74.53
66703;BME280;60933;46.398;-63.798;2023-06-22T11:10:33;102114.63;;;16.42;74.21
66703;BME280;60933;46.398;-63.798;2023-06-22T11:12:59;102112.59;;;16.52;73.48
66703;BME280;60933;46.398;-63.798;2023-06-22T11:15:25;102115.94;;;16.57;73.52
66703;BME280;60933;46.398;-63.798;2023-06-22T11:17:51;102102.81;;;16.60;73.58
66703;BME280;60933;46.398;-63.798;2023-06-22T11:20:17;102105.19;;;16.68;73.19
66703;BME280;60933;46.398;-63.798;2023-06-22T11:22:43;102098.88;;;16.77;73.48
66703;BME280;60933;46.398;-63.798;2023-06-22T11:25:09;102099.63;;;16.81;72.77
66703;BME280;60933;46.398;-63.798;2023-06-22T11:27:37;102099.28;;;16.93;72.20
66703;BME280;60933;46.398;-63.798;2023-06-22T11:30:04;102103.63;;;16.94;72.54
66703;BME280;60933;46.398;-63.798;2023-06-22T11:32:30;102099.06;;;17.01;72.76
66703;BME280;60933;46.398;-63.798;2023-06-22T11:34:56;102100.44;;;17.13;72.81
66703;BME280;60933;46.398;-63.798;2023-06-22T11:37:22;102101.09;;;17.19;72.04
66703;BME280;60933;46.398;-63.798;2023-06-22T11:39:48;102100.00;;;17.27;72.16
66703;BME280;60933;46.398;-63.798;2023-06-22T11:42:14;102101.53;;;17.34;71.74
66703;BME280;60933;46.398;-63.798;2023-06-22T11:44:42;102098.63;;;17.43;71.63
66703;BME280;60933;46.398;-63.798;2023-06-22T11:47:09;102097.53;;;17.50;71.54
66703;BME280;60933;46.398;-63.798;2023-06-22T11:49:35;102099.84;;;17.60;72.01
66703;BME280;60933;46.398;-63.798;2023-06-22T11:52:01;102096.97;;;17.67;71.11
66703;BME280;60933;46.398;-63.798;2023-06-22T11:54:28;102101.25;;;17.70;71.63
66703;BME280;60933;46.398;-63.798;2023-06-22T11:56:54;102100.28;;;17.72;71.30
66703;BME280;60933;46.398;-63.798;2023-06-22T11:59:20;102109.50;;;17.83;70.81
66703;BME280;60933;46.398;-63.798;2023-06-22T12:01:47;102101.50;;;17.89;70.72
66703;BME280;60933;46.398;-63.798;2023-06-22T12:04:16;102103.78;;;17.98;70.38
66703;BME280;60933;46.398;-63.798;2023-06-22T12:06:42;102097.66;;;17.99;69.69
66703;BME280;60933;46.398;-63.798;2023-06-22T12:09:09;102096.31;;;18.13;69.51
66703;BME280;60933;46.398;-63.798;2023-06-22T12:11:36;102095.31;;;18.17;69.04
66703;BME280;60933;46.398;-63.798;2023-06-22T12:14:02;102097.88;;;18.18;68.44
66703;BME280;60933;46.398;-63.798;2023-06-22T12:16:28;102100.06;;;18.31;68.55
66703;BME280;60933;46.398;-63.798;2023-06-22T12:18:54;102104.16;;;18.38;68.45
66703;BME280;60933;46.398;-63.798;2023-06-22T12:21:20;102091.78;;;18.43;68.25
66703;BME280;60933;46.398;-63.798;2023-06-22T12:23:47;102082.13;;;18.45;68.08
66703;BME280;60933;46.398;-63.798;2023-06-22T12:26:13;102095.53;;;18.60;68.37
66703;BME280;60933;46.398;-63.798;2023-06-22T12:28:39;102078.81;;;18.64;68.01
66703;BME280;60933;46.398;-63.798;2023-06-22T12:31:05;102082.66;;;18.77;67.82
66703;BME280;60933;46.398;-63.798;2023-06-22T12:33:31;102089.31;;;18.86;67.61
66703;BME280;60933;46.398;-63.798;2023-06-22T12:35:57;102084.59;;;18.96;68.15
66703;BME280;60933;46.398;-63.798;2023-06-22T12:38:23;102082.53;;;19.04;67.91